sensor_id;sensor_type;location;lat;lon;timestamp;pressure;altitude;pressure_sealevel;temperature;humidity
72558;BME280;60583;50.094;8.748;2023-05-23T00:00:05;100252.31;;;17.77;100.00
72558;BME280;60583;50.094;8.748;2023-05-23T00:02:31;100259.66;;;17.81;100.00
72558;BME280;60583;50.094;8.748;2023-05-23T00:04:56;100260.97;;;17.79;100.00
72558;BME280;60583;50.094;8.748;2023-05-23T00:07:23;100253.03;;;17.72;100.00
72558;BME280;60583;50.094;8.748;2023-05-23T00:09:48;100249.22;;;17.68;100.00
72558;BME280;60583;50.094;8.748;2023-05-23T00:12:13;100247.84;;;17.66;100.00
72558;BME280;60583;50.094;8.748;2023-05-23T00:14:39;100257.31;;;17.68;100.00
72558;BME280;60583;50.094;8.748;2023-05-23T00:17:04;100249.63;;;17.60;100.00
72558;BME280;60583;50.094;8.748;2023-05-23T00:19:30;100256.91;;;17.60;100.00
72558;BME280;60583;50.094;8.748;2023-05-23T00:21:55;100262.06;;;17.61;100.00
72558;BME280;60583;50.094;8.748;2023-05-23T00:24:21;100227.66;;;17.52;100.00
72558;BME280;60583;50.094;8.748;2023-05-23T00:26:46;100258.53;;;17.61;100.00
72558;BME280;60583;50.094;8.748;2023-05-23T00:29:12;100207.72;;;17.36;100.00
72558;BME280;60583;50.094;8.748;2023-05-23T00:31:41;100244.66;;;17.52;100.00
72558;BME280;60583;50.094;8.748;2023-05-23T00:34:11;100247.56;;;17.51;100.00
72558;BME280;60583;50.094;8.748;2023-05-23T00:36:36;100258.81;;;17.59;100.00
72558;BME280;60583;50.094;8.748;2023-05-23T00:39:02;100258.13;;;17.69;100.00
72558;BME280;60583;50.094;8.748;2023-05-23T00:41:28;100261.50;;;17.59;100.00
72558;BME280;60583;50.094;8.748;2023-05-23T00:43:55;100269.81;;;17.58;100.00
72558;BME280;60583;50.094;8.748;2023-05-23T00:46:22;100246.31;;;17.53;100.00
72558;BME280;60583;50.094;8.748;2023-05-23T00:48:48;100256.41;;;17.63;100.00
72558;BME280;60583;50.094;8.748;2023-05-23T00:51:13;100262.28;;;17.60;100.00
72558;BME280;60583;50.094;8.748;2023-05-23T00:53:40;100276.19;;;17.68;100.00
72558;BME280;60583;50.094;8.748;2023-05-23T00:56:07;100255.66;;;17.51;100.00
72558;BME280;60583;50.094;8.748;2023-05-23T00:58:33;100260.72;;;17.47;100.00
72558;BME280;60583;50.094;8.748;2023-05-23T01:00:59;100278.00;;;17.63;100.00
72558;BME280;60583;50.094;8.748;2023-05-23T01:03:24;100274.53;;;17.67;100.00
72558;BME280;60583;50.094;8.748;2023-05-23T01:05:53;100286.00;;;17.74;100.00
72558;BME280;60583;50.094;8.748;2023-05-23T01:08:20;100283.53;;;17.73;100.00
72558;BME280;60583;50.094;8.748;2023-05-23T01:10:45;100283.16;;;17.64;100.00
72558;BME280;60583;50.094;8.748;2023-05-23T01:13:30;100291.81;;;17.66;100.00
72558;BME280;60583;50.094;8.748;2023-05-23T01:16:04;100284.69;;;17.77;99.66
72558;BME280;60583;50.094;8.748;2023-05-23T01:18:47;100309.53;;;17.79;99.94
72558;BME280;60583;50.094;8.748;2023-05-23T01:21:20;100311.81;;;17.70;98.99
72558;BME280;60583;50.094;8.748;2023-05-23T01:26:52;100303.91;;;17.64;100.00
72558;BME280;60583;50.094;8.748;2023-05-23T01:29:27;100294.84;;;17.53;100.00
72558;BME280;60583;50.094;8.748;2023-05-23T01:31:54;100291.69;;;17.45;100.00
72558;BME280;60583;50.094;8.748;2023-05-23T01:34:21;100304.56;;;17.54;100.00
72558;BME280;60583;50.094;8.748;2023-05-23T01:36:49;100282.56;;;17.46;100.00
72558;BME280;60583;50.094;8.748;2023-05-23T01:39:15;100292.13;;;17.53;100.00
72558;BME280;60583;50.094;8.748;2023-05-23T01:41:40;100299.63;;;17.51;100.00
72558;BME280;60583;50.094;8.748;2023-05-23T01:44:06;100285.91;;;17.36;100.00
72558;BME280;60583;50.094;8.748;2023-05-23T01:46:33;100291.88;;;17.38;100.00
72558;BME280;60583;50.094;8.748;2023-05-23T01:49:00;100296.78;;;17.41;100.00
72558;BME280;60583;50.094;8.748;2023-05-23T01:51:27;100284.25;;;17.35;100.00
72558;BME280;60583;50.094;8.748;2023-05-23T01:53:53;100284.19;;;17.30;100.00
72558;BME280;60583;50.094;8.748;2023-05-23T01:56:19;100302.91;;;17.37;100.00
72558;BME280;60583;50.094;8.748;2023-05-23T01:58:44;100285.97;;;17.24;100.00
72558;BME280;60583;50.094;8.748;2023-05-23T02:01:10;100276.31;;;17.12;100.00
72558;BME280;60583;50.094;8.748;2023-05-23T02:03:35;100262.53;;;17.08;100.00
72558;BME280;60583;50.094;8.748;2023-05-23T02:06:01;100302.47;;;17.28;100.00
72558;BME280;60583;50.094;8.748;2023-05-23T02:08:26;100301.34;;;17.24;100.00
72558;BME280;60583;50.094;8.748;2023-05-23T02:10:52;100298.56;;;17.19;100.00
72558;BME280;60583;50.094;8.748;2023-05-23T02:13:17;100315.38;;;17.26;100.00
72558;BME280;60583;50.094;8.748;2023-05-23T02:15:43;100315.63;;;17.24;100.00
72558;BME280;60583;50.094;8.748;2023-05-23T02:18:08;100322.91;;;17.24;100.00
72558;BME280;60583;50.094;8.748;2023-05-23T02:20:34;100323.38;;;17.21;100.00
72558;BME280;60583;50.094;8.748;2023-05-23T02:22:59;100338.91;;;17.31;100.00
72558;BME280;60583;50.094;8.748;2023-05-23T02:25:25;100320.44;;;17.22;100.00
72558;BME280;60583;50.094;8.748;2023-05-23T02:27:50;100332.38;;;17.27;100.00
72558;BME280;60583;50.094;8.748;2023-05-23T02:30:16;100329.25;;;17.18;100.00
72558;BME280;60583;50.094;8.748;2023-05-23T02:32:41;100326.66;;;17.06;100.00
72558;BME280;60583;50.094;8.748;2023-05-23T02:35:07;100328.03;;;17.09;100.00
72558;BME280;60583;50.094;8.748;2023-05-23T02:37:32;100331.69;;;17.03;100.00
72558;BME280;60583;50.094;8.748;2023-05-23T02:39:58;100342.81;;;17.06;100.00
72558;BME280;60583;50.094;8.748;2023-05-23T02:42:23;100325.16;;;16.99;100.00
72558;BME280;60583;50.094;8.748;2023-05-23T02:44:49;100318.41;;;16.85;100.00
72558;BME280;60583;50.094;8.748;2023-05-23T02:47:14;100338.13;;;17.02;100.00
72558;BME280;60583;50.094;8.748;2023-05-23T02:49:40;100336.41;;;16.96;100.00
72558;BME280;60583;50.094;8.748;2023-05-23T02:52:05;100323.78;;;16.85;100.00
72558;BME280;60583;50.094;8.748;2023-05-23T02:54:30;100334.44;;;16.91;100.00
72558;BME280;60583;50.094;8.748;2023-05-23T02:56:56;100335.84;;;16.94;100.00
72558;BME280;60583;50.094;8.748;2023-05-23T02:59:22;100338.03;;;16.97;100.00
72558;BME280;60583;50.094;8.748;2023-05-23T03:01:48;100325.91;;;16.83;100.00
72558;BME280;60583;50.094;8.748;2023-05-23T03:04:13;100342.75;;;16.90;100.00
72558;BME280;60583;50.094;8.748;2023-05-23T03:06:39;100320.34;;;16.73;100.00
72558;BME280;60583;50.094;8.748;2023-05-23T03:09:07;100342.47;;;16.75;100.00
72558;BME280;60583;50.094;8.748;2023-05-23T03:11:32;100323.22;;;16.54;99.47
72558;BME280;60583;50.094;8.748;2023-05-23T03:13:58;100332.69;;;16.57;98.17
72558;BME280;60583;50.094;8.748;2023-05-23T03:16:23;100360.88;;;16.66;98.62
72558;BME280;60583;50.094;8.748;2023-05-23T03:18:49;100361.56;;;16.62;99.29
72558;BME280;60583;50.094;8.748;2023-05-23T03:21:14;100357.94;;;16.68;99.65
72558;BME280;60583;50.094;8.748;2023-05-23T03:23:40;100356.06;;;16.68;99.61
72558;BME280;60583;50.094;8.748;2023-05-23T03:26:05;100360.53;;;16.63;100.00
72558;BME280;60583;50.094;8.748;2023-05-23T03:28:31;100343.81;;;16.61;100.00
72558;BME280;60583;50.094;8.748;2023-05-23T03:30:57;100361.78;;;16.72;100.00
72558;BME280;60583;50.094;8.748;2023-05-23T03:33:22;100366.38;;;16.59;99.84
72558;BME280;60583;50.094;8.748;2023-05-23T03:35:48;100361.59;;;16.50;99.67
72558;BME280;60583;50.094;8.748;2023-05-23T03:38:13;100374.69;;;16.46;98.87
72558;BME280;60583;50.094;8.748;2023-05-23T03:40:39;100355.06;;;16.34;99.75
72558;BME280;60583;50.094;8.748;2023-05-23T03:43:05;100348.88;;;16.22;99.58
72558;BME280;60583;50.094;8.748;2023-05-23T03:45:31;100364.63;;;16.42;99.15
72558;BME280;60583;50.094;8.748;2023-05-23T03:47:57;100377.28;;;16.41;98.76
72558;BME280;60583;50.094;8.748;2023-05-23T03:50:23;100360.56;;;16.39;95.71
72558;BME280;60583;50.094;8.748;2023-05-23T03:52:48;100378.34;;;16.40;95.21
72558;BME280;60583;50.094;8.748;2023-05-23T03:55:14;100375.19;;;16.32;97.45
72558;BME280;60583;50.094;8.748;2023-05-23T03:57:39;100356.25;;;16.15;97.68
72558;BME280;60583;50.094;8.748;2023-05-23T04:03:09;100369.84;;;16.20;98.20
72558;BME280;60583;50.094;8.748;2023-05-23T04:05:35;100385.00;;;16.26;97.94
72558;BME280;60583;50.094;8.748;2023-05-23T04:08:01;100392.50;;;16.24;98.02
72558;BME280;60583;50.094;8.748;2023-05-23T04:10:26;100396.28;;;16.23;96.97
72558;BME280;60583;50.094;8.748;2023-05-23T04:12:51;100406.31;;;16.16;93.43
72558;BME280;60583;50.094;8.748;2023-05-23T04:15:17;100421.41;;;16.17;94.05
72558;BME280;60583;50.094;8.748;2023-05-23T04:17:45;100423.75;;;16.14;94.27
72558;BME280;60583;50.094;8.748;2023-05-23T04:20:11;100419.06;;;16.09;91.11
72558;BME280;60583;50.094;8.748;2023-05-23T04:22:37;100392.88;;;16.05;89.89
72558;BME280;60583;50.094;8.748;2023-05-23T04:25:04;100422.69;;;16.26;89.23
72558;BME280;60583;50.094;8.748;2023-05-23T04:27:30;100438.28;;;16.36;88.85
72558;BME280;60583;50.094;8.748;2023-05-23T04:29:55;100420.38;;;16.18;90.01
72558;BME280;60583;50.094;8.748;2023-05-23T04:32:23;100429.13;;;16.14;90.51
72558;BME280;60583;50.094;8.748;2023-05-23T04:34:49;100434.63;;;16.07;90.00
72558;BME280;60583;50.094;8.748;2023-05-23T04:37:15;100406.34;;;15.93;88.18
72558;BME280;60583;50.094;8.748;2023-05-23T04:39:41;100441.78;;;16.13;87.31
72558;BME280;60583;50.094;8.748;2023-05-23T04:42:06;100441.41;;;16.21;87.65
72558;BME280;60583;50.094;8.748;2023-05-23T04:44:32;100432.53;;;16.09;86.99
72558;BME280;60583;50.094;8.748;2023-05-23T04:46:58;100448.56;;;16.16;86.86
72558;BME280;60583;50.094;8.748;2023-05-23T04:49:23;100442.47;;;16.09;87.17
72558;BME280;60583;50.094;8.748;2023-05-23T04:51:49;100438.38;;;16.06;88.73
72558;BME280;60583;50.094;8.748;2023-05-23T04:54:15;100422.72;;;16.03;86.48
72558;BME280;60583;50.094;8.748;2023-05-23T04:56:40;100457.91;;;16.25;85.13
72558;BME280;60583;50.094;8.748;2023-05-23T04:59:06;100423.88;;;16.19;83.93
72558;BME280;60583;50.094;8.748;2023-05-23T05:01:33;100428.31;;;16.25;84.17
72558;BME280;60583;50.094;8.748;2023-05-23T05:03:58;100421.06;;;16.25;80.71
72558;BME280;60583;50.094;8.748;2023-05-23T05:06:24;100448.91;;;16.42;81.71
72558;BME280;60583;50.094;8.748;2023-05-23T05:08:51;100451.13;;;16.45;80.69
72558;BME280;60583;50.094;8.748;2023-05-23T05:11:17;100457.56;;;16.44;79.02
72558;BME280;60583;50.094;8.748;2023-05-23T05:13:42;100458.53;;;16.38;78.53
72558;BME280;60583;50.094;8.748;2023-05-23T05:16:10;100459.81;;;16.36;78.90
72558;BME280;60583;50.094;8.748;2023-05-23T05:18:37;100465.06;;;16.42;79.38
72558;BME280;60583;50.094;8.748;2023-05-23T05:21:03;100447.53;;;16.28;78.61
72558;BME280;60583;50.094;8.748;2023-05-23T05:23:30;100462.94;;;16.44;77.20
72558;BME280;60583;50.094;8.748;2023-05-23T05:25:56;100469.53;;;16.48;77.48
72558;BME280;60583;50.094;8.748;2023-05-23T05:28:21;100448.69;;;16.32;76.63
72558;BME280;60583;50.094;8.748;2023-05-23T05:30:47;100478.06;;;16.57;78.70
72558;BME280;60583;50.094;8.748;2023-05-23T05:33:18;100436.25;;;16.31;77.14
72558;BME280;60583;50.094;8.748;2023-05-23T05:35:44;100479.00;;;16.51;78.67
72558;BME280;60583;50.094;8.748;2023-05-23T05:38:10;100489.56;;;16.52;79.38
72558;BME280;60583;50.094;8.748;2023-05-23T05:40:38;100469.97;;;16.45;76.18
72558;BME280;60583;50.094;8.748;2023-05-23T05:43:07;100464.97;;;16.26;76.22
72558;BME280;60583;50.094;8.748;2023-05-23T05:45:32;100507.44;;;16.35;75.65
72558;BME280;60583;50.094;8.748;2023-05-23T05:47:58;100475.81;;;16.19;76.06
72558;BME280;60583;50.094;8.748;2023-05-23T05:50:23;100494.56;;;16.26;76.33
72558;BME280;60583;50.094;8.748;2023-05-23T05:52:49;100508.59;;;16.39;77.19
72558;BME280;60583;50.094;8.748;2023-05-23T05:55:14;100515.16;;;16.43;77.03
72558;BME280;60583;50.094;8.748;2023-05-23T05:57:40;100516.91;;;16.38;78.69
72558;BME280;60583;50.094;8.748;2023-05-23T06:00:07;100516.78;;;16.33;77.11
72558;BME280;60583;50.094;8.748;2023-05-23T06:02:38;100524.28;;;16.42;76.69
72558;BME280;60583;50.094;8.748;2023-05-23T06:05:04;100528.06;;;16.53;77.47
72558;BME280;60583;50.094;8.748;2023-05-23T06:07:33;100530.81;;;16.46;76.56
72558;BME280;60583;50.094;8.748;2023-05-23T06:09:58;100531.06;;;16.33;77.26
72558;BME280;60583;50.094;8.748;2023-05-23T06:12:24;100532.13;;;16.44;77.74
72558;BME280;60583;50.094;8.748;2023-05-23T06:14:49;100539.16;;;16.45;78.45
72558;BME280;60583;50.094;8.748;2023-05-23T06:17:15;100530.94;;;16.40;76.78
72558;BME280;60583;50.094;8.748;2023-05-23T06:19:40;100546.53;;;16.49;76.29
72558;BME280;60583;50.094;8.748;2023-05-23T06:22:05;100545.94;;;16.47;77.82
72558;BME280;60583;50.094;8.748;2023-05-23T06:24:31;100540.09;;;16.50;77.07
72558;BME280;60583;50.094;8.748;2023-05-23T06:26:56;100534.34;;;16.35;77.99
72558;BME280;60583;50.094;8.748;2023-05-23T06:29:22;100531.78;;;16.40;77.13
72558;BME280;60583;50.094;8.748;2023-05-23T06:31:47;100547.75;;;16.53;78.06
72558;BME280;60583;50.094;8.748;2023-05-23T06:34:12;100532.75;;;16.57;76.90
72558;BME280;60583;50.094;8.748;2023-05-23T06:36:38;100554.28;;;16.69;77.70
72558;BME280;60583;50.094;8.748;2023-05-23T06:39:03;100545.50;;;16.62;78.32
72558;BME280;60583;50.094;8.748;2023-05-23T06:41:28;100520.31;;;16.45;79.70
72558;BME280;60583;50.094;8.748;2023-05-23T06:43:54;100540.56;;;16.47;78.92
72558;BME280;60583;50.094;8.748;2023-05-23T06:46:19;100548.06;;;16.57;77.32
72558;BME280;60583;50.094;8.748;2023-05-23T06:48:44;100504.16;;;16.33;76.50
72558;BME280;60583;50.094;8.748;2023-05-23T06:51:10;100534.28;;;16.53;77.35
72558;BME280;60583;50.094;8.748;2023-05-23T06:53:35;100528.38;;;16.45;77.12
72558;BME280;60583;50.094;8.748;2023-05-23T06:56:01;100518.91;;;16.42;77.08
72558;BME280;60583;50.094;8.748;2023-05-23T06:58:26;100547.97;;;16.64;76.29
72558;BME280;60583;50.094;8.748;2023-05-23T07:00:51;100535.91;;;16.66;76.26
72558;BME280;60583;50.094;8.748;2023-05-23T07:03:17;100519.38;;;16.86;76.56
72558;BME280;60583;50.094;8.748;2023-05-23T07:05:42;100521.41;;;17.30;75.39
72558;BME280;60583;50.094;8.748;2023-05-23T07:08:08;100519.91;;;17.62;73.87
72558;BME280;60583;50.094;8.748;2023-05-23T07:10:35;100511.03;;;17.78;74.15
72558;BME280;60583;50.094;8.748;2023-05-23T07:13:00;100516.09;;;18.20;74.02
72558;BME280;60583;50.094;8.748;2023-05-23T07:15:26;100522.59;;;18.40;71.63
72558;BME280;60583;50.094;8.748;2023-05-23T07:17:51;100512.69;;;18.46;71.50
72558;BME280;60583;50.094;8.748;2023-05-23T07:20:17;100529.81;;;18.68;70.41
72558;BME280;60583;50.094;8.748;2023-05-23T07:22:42;100530.75;;;18.95;69.35
72558;BME280;60583;50.094;8.748;2023-05-23T07:25:11;100537.44;;;19.09;69.05
72558;BME280;60583;50.094;8.748;2023-05-23T07:27:36;100533.59;;;19.05;68.90
72558;BME280;60583;50.094;8.748;2023-05-23T07:30:01;100524.72;;;19.10;67.84
72558;BME280;60583;50.094;8.748;2023-05-23T07:32:27;100533.34;;;19.29;68.61
72558;BME280;60583;50.094;8.748;2023-05-23T07:34:52;100528.13;;;19.44;67.62
72558;BME280;60583;50.094;8.748;2023-05-23T07:37:18;100545.00;;;19.51;67.73
72558;BME280;60583;50.094;8.748;2023-05-23T07:39:43;100548.56;;;19.56;66.37
72558;BME280;60583;50.094;8.748;2023-05-23T07:42:08;100534.69;;;19.48;66.59
72558;BME280;60583;50.094;8.748;2023-05-23T07:44:34;100517.31;;;19.44;64.84
72558;BME280;60583;50.094;8.748;2023-05-23T07:46:59;100540.09;;;19.48;64.44
72558;BME280;60583;50.094;8.748;2023-05-23T07:49:25;100549.72;;;19.39;64.37
72558;BME280;60583;50.094;8.748;2023-05-23T07:51:50;100550.03;;;19.21;63.72
72558;BME280;60583;50.094;8.748;2023-05-23T07:54:16;100545.59;;;19.15;65.19
72558;BME280;60583;50.094;8.748;2023-05-23T07:56:42;100536.66;;;19.14;66.15
72558;BME280;60583;50.094;8.748;2023-05-23T07:59:07;100551.16;;;19.25;65.32
72558;BME280;60583;50.094;8.748;2023-05-23T08:01:33;100542.69;;;19.21;65.34
72558;BME280;60583;50.094;8.748;2023-05-23T08:03:58;100541.72;;;19.05;65.57
72558;BME280;60583;50.094;8.748;2023-05-23T08:06:23;100550.38;;;19.07;66.58
72558;BME280;60583;50.094;8.748;2023-05-23T08:08:49;100549.75;;;19.00;66.58
72558;BME280;60583;50.094;8.748;2023-05-23T08:11:15;100563.34;;;19.05;66.49
72558;BME280;60583;50.094;8.748;2023-05-23T08:13:40;100558.91;;;18.99;66.12
72558;BME280;60583;50.094;8.748;2023-05-23T08:16:06;100554.50;;;18.93;67.61
72558;BME280;60583;50.094;8.748;2023-05-23T08:18:31;100552.72;;;18.82;67.31
72558;BME280;60583;50.094;8.748;2023-05-23T08:20:56;100550.09;;;18.87;67.71
72558;BME280;60583;50.094;8.748;2023-05-23T08:23:22;100558.34;;;18.97;66.66
72558;BME280;60583;50.094;8.748;2023-05-23T08:25:47;100550.88;;;19.04;66.35
72558;BME280;60583;50.094;8.748;2023-05-23T08:28:12;100557.59;;;19.02;65.40
72558;BME280;60583;50.094;8.748;2023-05-23T08:30:38;100571.53;;;19.10;65.90
72558;BME280;60583;50.094;8.748;2023-05-23T08:33:03;100566.13;;;19.10;66.76
72558;BME280;60583;50.094;8.748;2023-05-23T08:35:29;100559.53;;;19.23;66.55
72558;BME280;60583;50.094;8.748;2023-05-23T08:38:00;100549.25;;;19.25;66.53
72558;BME280;60583;50.094;8.748;2023-05-23T08:40:26;100576.84;;;19.65;65.44
72558;BME280;60583;50.094;8.748;2023-05-23T08:42:54;100553.31;;;19.66;64.60
72558;BME280;60583;50.094;8.748;2023-05-23T08:45:20;100582.94;;;19.56;64.25
72558;BME280;60583;50.094;8.748;2023-05-23T08:47:50;100586.91;;;19.70;63.48
72558;BME280;60583;50.094;8.748;2023-05-23T08:50:16;100568.63;;;19.82;63.25
72558;BME280;60583;50.094;8.748;2023-05-23T08:52:49;100568.66;;;19.87;63.21
72558;BME280;60583;50.094;8.748;2023-05-23T08:55:16;100561.47;;;20.24;63.50
72558;BME280;60583;50.094;8.748;2023-05-23T08:57:41;100559.69;;;20.35;62.17
72558;BME280;60583;50.094;8.748;2023-05-23T09:00:11;100555.63;;;20.38;61.24
72558;BME280;60583;50.094;8.748;2023-05-23T09:02:42;100560.44;;;20.62;61.13
72558;BME280;60583;50.094;8.748;2023-05-23T09:05:09;100570.03;;;20.80;61.01
72558;BME280;60583;50.094;8.748;2023-05-23T09:07:35;100559.38;;;20.63;61.38
72558;BME280;60583;50.094;8.748;2023-05-23T09:10:05;100560.78;;;20.71;61.18
72558;BME280;60583;50.094;8.748;2023-05-23T09:12:31;100570.09;;;20.90;60.81
72558;BME280;60583;50.094;8.748;2023-05-23T09:14:57;100567.69;;;20.52;61.37
72558;BME280;60583;50.094;8.748;2023-05-23T09:17:23;100572.72;;;20.11;60.58
72558;BME280;60583;50.094;8.748;2023-05-23T09:19:48;100554.72;;;20.00;61.44
72558;BME280;60583;50.094;8.748;2023-05-23T09:22:14;100551.03;;;19.58;61.19
72558;BME280;60583;50.094;8.748;2023-05-23T09:24:39;100563.25;;;19.39;62.29
72558;BME280;60583;50.094;8.748;2023-05-23T09:27:06;100578.06;;;19.36;62.75
72558;BME280;60583;50.094;8.748;2023-05-23T09:29:36;100575.88;;;19.33;63.46
72558;BME280;60583;50.094;8.748;2023-05-23T09:32:12;100579.97;;;19.36;64.33
72558;BME280;60583;50.094;8.748;2023-05-23T09:34:57;100589.78;;;19.42;64.11
72558;BME280;60583;50.094;8.748;2023-05-23T09:37:30;100593.06;;;19.44;63.04
72558;BME280;60583;50.094;8.748;2023-05-23T09:39:58;100565.94;;;19.60;63.32
72558;BME280;60583;50.094;8.748;2023-05-23T09:42:25;100579.88;;;19.74;63.20
72558;BME280;60583;50.094;8.748;2023-05-23T09:44:55;100568.88;;;19.81;61.84
72558;BME280;60583;50.094;8.748;2023-05-23T09:47:20;100570.25;;;19.83;61.93
72558;BME280;60583;50.094;8.748;2023-05-23T09:49:46;100580.69;;;19.96;61.45
72558;BME280;60583;50.094;8.748;2023-05-23T09:52:12;100555.63;;;19.84;61.97
72558;BME280;60583;50.094;8.748;2023-05-23T09:54:38;100563.47;;;19.81;61.96
72558;BME280;60583;50.094;8.748;2023-05-23T09:57:08;100568.44;;;19.89;61.97
72558;BME280;60583;50.094;8.748;2023-05-23T09:59:34;100593.13;;;19.97;62.43
72558;BME280;60583;50.094;8.748;2023-05-23T10:02:01;100588.88;;;19.80;62.36
72558;BME280;60583;50.094;8.748;2023-05-23T10:04:30;100595.75;;;19.87;62.41
72558;BME280;60583;50.094;8.748;2023-05-23T10:06:58;100590.69;;;19.96;61.35
72558;BME280;60583;50.094;8.748;2023-05-23T10:09:28;100568.06;;;20.07;61.76
72558;BME280;60583;50.094;8.748;2023-05-23T10:12:20;100588.47;;;20.41;62.45
72558;BME280;60583;50.094;8.748;2023-05-23T10:15:03;100545.50;;;19.96;62.09
72558;BME280;60583;50.094;8.748;2023-05-23T10:18:11;100577.56;;;20.36;61.59
72558;BME280;60583;50.094;8.748;2023-05-23T10:20:38;100571.28;;;20.04;61.64
72558;BME280;60583;50.094;8.748;2023-05-23T10:23:03;100601.81;;;19.99;61.07
72558;BME280;60583;50.094;8.748;2023-05-23T10:25:30;100602.31;;;19.91;62.88
72558;BME280;60583;50.094;8.748;2023-05-23T10:27:57;100597.22;;;19.73;64.12
72558;BME280;60583;50.094;8.748;2023-05-23T10:30:26;100612.84;;;19.66;64.13
72558;BME280;60583;50.094;8.748;2023-05-23T10:32:55;100580.84;;;19.41;63.31
72558;BME280;60583;50.094;8.748;2023-05-23T10:35:27;100599.50;;;19.21;63.40
72558;BME280;60583;50.094;8.748;2023-05-23T10:38:01;100622.25;;;19.42;62.88
72558;BME280;60583;50.094;8.748;2023-05-23T10:46:00;100625.66;;;19.54;63.25
72558;BME280;60583;50.094;8.748;2023-05-23T10:48:34;100614.22;;;19.68;63.68
72558;BME280;60583;50.094;8.748;2023-05-23T10:51:07;100610.91;;;19.88;62.11
72558;BME280;60583;50.094;8.748;2023-05-23T10:53:41;100602.47;;;20.06;62.20
72558;BME280;60583;50.094;8.748;2023-05-23T10:56:09;100594.03;;;20.29;61.77
72558;BME280;60583;50.094;8.748;2023-05-23T10:58:37;100604.84;;;20.29;60.74
72558;BME280;60583;50.094;8.748;2023-05-23T11:01:08;100614.22;;;20.44;61.09
72558;BME280;60583;50.094;8.748;2023-05-23T11:03:48;100614.22;;;20.44;60.93
72558;BME280;60583;50.094;8.748;2023-05-23T11:06:42;100619.19;;;20.52;61.62
72558;BME280;60583;50.094;8.748;2023-05-23T11:09:17;100611.06;;;20.25;62.17
72558;BME280;60583;50.094;8.748;2023-05-23T11:12:00;100614.19;;;19.90;61.81
72558;BME280;60583;50.094;8.748;2023-05-23T11:17:00;100636.38;;;19.65;62.93
72558;BME280;60583;50.094;8.748;2023-05-23T11:19:39;100637.16;;;19.44;63.76
72558;BME280;60583;50.094;8.748;2023-05-23T11:22:21;100628.81;;;19.29;64.20
72558;BME280;60583;50.094;8.748;2023-05-23T11:24:47;100636.59;;;19.42;64.23
72558;BME280;60583;50.094;8.748;2023-05-23T11:27:17;100638.19;;;19.38;65.22
72558;BME280;60583;50.094;8.748;2023-05-23T11:30:01;100638.56;;;19.47;65.01
72558;BME280;60583;50.094;8.748;2023-05-23T11:32:29;100634.22;;;19.46;65.12
72558;BME280;60583;50.094;8.748;2023-05-23T11:34:58;100639.94;;;19.49;64.49
72558;BME280;60583;50.094;8.748;2023-05-23T11:37:26;100620.75;;;19.51;64.94
72558;BME280;60583;50.094;8.748;2023-05-23T11:39:51;100614.59;;;19.55;63.12
72558;BME280;60583;50.094;8.748;2023-05-23T11:42:16;100619.88;;;19.67;63.18
72558;BME280;60583;50.094;8.748;2023-05-23T11:44:42;100616.59;;;19.65;63.22
72558;BME280;60583;50.094;8.748;2023-05-23T11:47:09;100604.69;;;19.88;62.71
72558;BME280;60583;50.094;8.748;2023-05-23T11:49:36;100634.25;;;20.16;63.04
72558;BME280;60583;50.094;8.748;2023-05-23T11:52:05;100636.69;;;20.17;61.18
72558;BME280;60583;50.094;8.748;2023-05-23T11:54:31;100609.50;;;20.07;61.47
72558;BME280;60583;50.094;8.748;2023-05-23T11:56:57;100631.72;;;20.31;61.43
72558;BME280;60583;50.094;8.748;2023-05-23T11:59:23;100642.00;;;20.07;61.45
72558;BME280;60583;50.094;8.748;2023-05-23T12:01:51;100621.75;;;20.15;61.84
72558;BME280;60583;50.094;8.748;2023-05-23T12:04:17;100626.03;;;20.32;61.85
72558;BME280;60583;50.094;8.748;2023-05-23T12:06:45;100626.47;;;20.24;61.41
72558;BME280;60583;50.094;8.748;2023-05-23T12:09:12;100609.78;;;19.84;61.94
72558;BME280;60583;50.094;8.748;2023-05-23T12:11:39;100633.31;;;20.05;63.19
72558;BME280;60583;50.094;8.748;2023-05-23T12:14:06;100640.47;;;20.16;62.83
72558;BME280;60583;50.094;8.748;2023-05-23T12:16:33;100626.03;;;20.32;62.34
72558;BME280;60583;50.094;8.748;2023-05-23T12:19:00;100632.41;;;21.12;60.83
72558;BME280;60583;50.094;8.748;2023-05-23T12:21:26;100623.41;;;21.06;58.57
72558;BME280;60583;50.094;8.748;2023-05-23T12:26:47;100628.41;;;21.24;58.17
72558;BME280;60583;50.094;8.748;2023-05-23T12:29:13;100641.91;;;21.14;58.55
72558;BME280;60583;50.094;8.748;2023-05-23T12:31:39;100627.69;;;20.65;59.63
72558;BME280;60583;50.094;8.748;2023-05-23T12:34:04;100634.25;;;20.43;58.61
72558;BME280;60583;50.094;8.748;2023-05-23T12:36:29;100622.75;;;20.30;58.77
72558;BME280;60583;50.094;8.748;2023-05-23T12:39:05;100635.91;;;20.22;58.63
72558;BME280;60583;50.094;8.748;2023-05-23T12:41:32;100656.28;;;20.03;60.02
72558;BME280;60583;50.094;8.748;2023-05-23T12:43:58;100637.25;;;19.71;59.83
72558;BME280;60583;50.094;8.748;2023-05-23T12:46:25;100636.50;;;19.76;60.57
72558;BME280;60583;50.094;8.748;2023-05-23T12:48:51;100637.31;;;19.76;60.50
72558;BME280;60583;50.094;8.748;2023-05-23T12:51:17;100653.63;;;19.81;58.73
72558;BME280;60583;50.094;8.748;2023-05-23T12:53:42;100652.16;;;19.73;58.55
72558;BME280;60583;50.094;8.748;2023-05-23T12:56:08;100652.78;;;19.59;59.17
72558;BME280;60583;50.094;8.748;2023-05-23T12:58:33;100642.41;;;19.51;58.79
72558;BME280;60583;50.094;8.748;2023-05-23T13:01:00;100653.72;;;19.48;60.16
72558;BME280;60583;50.094;8.748;2023-05-23T13:03:25;100637.25;;;19.33;60.75